EHGR/GLZ METAR and TAF weather

Enter ICAO airport designator
Station Type Date Time Source
EHGR METAR 2019/08/19 22:55 UTC NOAA

EHGR 192255Z AUTO 20004KT 170V250 9999 NCD 13/09 Q1019 BLU


Station Type Date Time Source
EHGR Decoded METAR 2019/08/19 22:55 UTC NOAA

Gilze-Rijen, Netherlands (EHGR) 51-34N 004-56E 24M
Aug 19, 2019 - 06:55 PM EDT / 2019.08.19 2255 UTC
Wind: from the SSW (200 degrees) at 5 MPH (4 KT) (direction variable):0
Visibility: greater than 7 mile(s):0
Temperature: 55 F (13 C)
Dew Point: 48 F (9 C)
Relative Humidity: 76%
Pressure (altimeter): 30.09 in. Hg (1019 hPa)
ob: EHGR 192255Z AUTO 20004KT 170V250 9999 NCD 13/09 Q1019 BLU
cycle: 23

Station Type Date Time Source
EHGR TAF 2019/08/19 17:09 UTC NOAA

TAF TAF EHGR 191609Z 1917/2005 23009KT 9999 FEW030 PROB40
TEMPO 1917/1920 24013G25KT FEW030CB SCT040 PROB30
TEMPO 1914/1920 4500 TSRA SCT025CB BKN030

Example: see airport list